sensor_id;sensor_type;location;lat;lon;timestamp;P1;durP1;ratioP1;P2;durP2;ratioP2
21148;SDS011;10732;51.472;6.466;2023-09-07T00:00:13;9.52;;;6.55;;
21148;SDS011;10732;51.472;6.466;2023-09-07T00:02:39;9.52;;;6.95;;
21148;SDS011;10732;51.472;6.466;2023-09-07T00:05:08;7.55;;;6.75;;
21148;SDS011;10732;51.472;6.466;2023-09-07T00:07:35;8.60;;;6.75;;
21148;SDS011;10732;51.472;6.466;2023-09-07T00:10:01;9.45;;;6.97;;
21148;SDS011;10732;51.472;6.466;2023-09-07T00:12:28;7.78;;;6.82;;
21148;SDS011;10732;51.472;6.466;2023-09-07T00:14:54;8.93;;;7.43;;
21148;SDS011;10732;51.472;6.466;2023-09-07T00:17:20;9.85;;;7.60;;
21148;SDS011;10732;51.472;6.466;2023-09-07T00:19:46;8.65;;;7.45;;
21148;SDS011;10732;51.472;6.466;2023-09-07T00:22:14;8.55;;;7.65;;
21148;SDS011;10732;51.472;6.466;2023-09-07T00:24:40;9.70;;;7.30;;
21148;SDS011;10732;51.472;6.466;2023-09-07T00:27:05;7.57;;;6.68;;
21148;SDS011;10732;51.472;6.466;2023-09-07T00:29:32;8.10;;;7.30;;
21148;SDS011;10732;51.472;6.466;2023-09-07T00:31:59;8.27;;;7.10;;
21148;SDS011;10732;51.472;6.466;2023-09-07T00:34:25;10.88;;;7.40;;
21148;SDS011;10732;51.472;6.466;2023-09-07T00:36:50;12.13;;;7.28;;
21148;SDS011;10732;51.472;6.466;2023-09-07T00:39:16;11.02;;;7.65;;
21148;SDS011;10732;51.472;6.466;2023-09-07T00:41:41;9.07;;;7.53;;
21148;SDS011;10732;51.472;6.466;2023-09-07T00:44:07;9.95;;;7.60;;
21148;SDS011;10732;51.472;6.466;2023-09-07T00:46:32;8.52;;;7.57;;
21148;SDS011;10732;51.472;6.466;2023-09-07T00:48:58;8.85;;;7.03;;
21148;SDS011;10732;51.472;6.466;2023-09-07T00:51:24;8.27;;;7.22;;
21148;SDS011;10732;51.472;6.466;2023-09-07T00:53:50;11.00;;;7.35;;
21148;SDS011;10732;51.472;6.466;2023-09-07T00:56:15;11.40;;;7.63;;
21148;SDS011;10732;51.472;6.466;2023-09-07T00:58:41;10.02;;;7.47;;
21148;SDS011;10732;51.472;6.466;2023-09-07T01:01:08;8.95;;;8.05;;
21148;SDS011;10732;51.472;6.466;2023-09-07T01:03:33;10.60;;;7.70;;
21148;SDS011;10732;51.472;6.466;2023-09-07T01:06:03;8.20;;;7.40;;
21148;SDS011;10732;51.472;6.466;2023-09-07T01:08:44;12.38;;;7.75;;
21148;SDS011;10732;51.472;6.466;2023-09-07T01:11:14;9.60;;;7.78;;
21148;SDS011;10732;51.472;6.466;2023-09-07T01:13:41;14.13;;;7.57;;
21148;SDS011;10732;51.472;6.466;2023-09-07T01:16:10;8.80;;;7.47;;
21148;SDS011;10732;51.472;6.466;2023-09-07T01:18:37;10.90;;;7.53;;
21148;SDS011;10732;51.472;6.466;2023-09-07T01:21:07;10.48;;;7.60;;
21148;SDS011;10732;51.472;6.466;2023-09-07T01:23:35;8.45;;;7.55;;
21148;SDS011;10732;51.472;6.466;2023-09-07T01:26:02;9.88;;;7.90;;
21148;SDS011;10732;51.472;6.466;2023-09-07T01:28:28;10.05;;;8.73;;
21148;SDS011;10732;51.472;6.466;2023-09-07T01:30:53;8.45;;;7.55;;
21148;SDS011;10732;51.472;6.466;2023-09-07T01:33:19;8.40;;;7.47;;
21148;SDS011;10732;51.472;6.466;2023-09-07T01:35:45;9.73;;;7.40;;
21148;SDS011;10732;51.472;6.466;2023-09-07T01:38:11;8.63;;;7.65;;
21148;SDS011;10732;51.472;6.466;2023-09-07T01:40:36;9.45;;;7.90;;
21148;SDS011;10732;51.472;6.466;2023-09-07T01:43:02;9.35;;;8.27;;
21148;SDS011;10732;51.472;6.466;2023-09-07T01:45:28;8.57;;;7.78;;
21148;SDS011;10732;51.472;6.466;2023-09-07T01:47:53;12.38;;;8.55;;
21148;SDS011;10732;51.472;6.466;2023-09-07T01:50:19;9.52;;;8.43;;
21148;SDS011;10732;51.472;6.466;2023-09-07T01:52:47;10.25;;;8.70;;
21148;SDS011;10732;51.472;6.466;2023-09-07T01:55:16;15.70;;;10.35;;
21148;SDS011;10732;51.472;6.466;2023-09-07T01:57:42;11.93;;;10.57;;
21148;SDS011;10732;51.472;6.466;2023-09-07T02:00:09;12.57;;;10.50;;
21148;SDS011;10732;51.472;6.466;2023-09-07T02:02:35;11.65;;;10.45;;
21148;SDS011;10732;51.472;6.466;2023-09-07T02:05:00;12.05;;;10.85;;
21148;SDS011;10732;51.472;6.466;2023-09-07T02:07:26;12.43;;;11.13;;
21148;SDS011;10732;51.472;6.466;2023-09-07T02:09:52;11.27;;;9.95;;
21148;SDS011;10732;51.472;6.466;2023-09-07T02:12:18;11.25;;;10.10;;
21148;SDS011;10732;51.472;6.466;2023-09-07T02:14:43;12.65;;;11.35;;
21148;SDS011;10732;51.472;6.466;2023-09-07T02:17:09;13.55;;;11.48;;
21148;SDS011;10732;51.472;6.466;2023-09-07T02:19:34;14.38;;;11.82;;
21148;SDS011;10732;51.472;6.466;2023-09-07T02:22:00;13.55;;;11.13;;
21148;SDS011;10732;51.472;6.466;2023-09-07T02:24:26;14.25;;;11.35;;
21148;SDS011;10732;51.472;6.466;2023-09-07T02:26:51;12.45;;;11.23;;
21148;SDS011;10732;51.472;6.466;2023-09-07T02:29:17;14.30;;;10.77;;
21148;SDS011;10732;51.472;6.466;2023-09-07T02:31:42;13.60;;;11.07;;
21148;SDS011;10732;51.472;6.466;2023-09-07T02:34:08;13.05;;;11.45;;
21148;SDS011;10732;51.472;6.466;2023-09-07T02:36:34;13.88;;;11.55;;
21148;SDS011;10732;51.472;6.466;2023-09-07T02:39:00;15.68;;;11.70;;
21148;SDS011;10732;51.472;6.466;2023-09-07T02:41:26;11.75;;;10.55;;
21148;SDS011;10732;51.472;6.466;2023-09-07T02:43:52;13.25;;;11.50;;
21148;SDS011;10732;51.472;6.466;2023-09-07T02:46:17;13.27;;;11.82;;
21148;SDS011;10732;51.472;6.466;2023-09-07T02:48:43;14.43;;;12.63;;
21148;SDS011;10732;51.472;6.466;2023-09-07T02:51:08;13.32;;;11.95;;
21148;SDS011;10732;51.472;6.466;2023-09-07T02:53:34;13.73;;;12.32;;
21148;SDS011;10732;51.472;6.466;2023-09-07T02:55:59;13.68;;;12.25;;
21148;SDS011;10732;51.472;6.466;2023-09-07T02:58:29;15.82;;;11.93;;
21148;SDS011;10732;51.472;6.466;2023-09-07T03:00:54;14.00;;;12.48;;
21148;SDS011;10732;51.472;6.466;2023-09-07T03:03:20;14.18;;;12.25;;
21148;SDS011;10732;51.472;6.466;2023-09-07T03:05:45;16.08;;;13.52;;
21148;SDS011;10732;51.472;6.466;2023-09-07T03:08:11;13.75;;;12.35;;
21148;SDS011;10732;51.472;6.466;2023-09-07T03:10:37;14.40;;;12.75;;
21148;SDS011;10732;51.472;6.466;2023-09-07T03:13:04;14.65;;;12.88;;
21148;SDS011;10732;51.472;6.466;2023-09-07T03:15:30;15.05;;;13.10;;
21148;SDS011;10732;51.472;6.466;2023-09-07T03:17:56;13.32;;;11.90;;
21148;SDS011;10732;51.472;6.466;2023-09-07T03:20:22;13.20;;;11.80;;
21148;SDS011;10732;51.472;6.466;2023-09-07T03:22:47;12.60;;;11.40;;
21148;SDS011;10732;51.472;6.466;2023-09-07T03:25:13;14.07;;;11.90;;
21148;SDS011;10732;51.472;6.466;2023-09-07T03:27:39;13.82;;;12.00;;
21148;SDS011;10732;51.472;6.466;2023-09-07T03:30:05;15.27;;;11.23;;
21148;SDS011;10732;51.472;6.466;2023-09-07T03:32:32;13.85;;;11.65;;
21148;SDS011;10732;51.472;6.466;2023-09-07T03:34:59;12.63;;;11.10;;
21148;SDS011;10732;51.472;6.466;2023-09-07T03:37:25;10.48;;;9.38;;
21148;SDS011;10732;51.472;6.466;2023-09-07T03:39:54;10.63;;;9.52;;
21148;SDS011;10732;51.472;6.466;2023-09-07T03:42:21;10.93;;;8.82;;
21148;SDS011;10732;51.472;6.466;2023-09-07T03:44:47;11.98;;;10.38;;
21148;SDS011;10732;51.472;6.466;2023-09-07T03:47:13;13.65;;;10.15;;
21148;SDS011;10732;51.472;6.466;2023-09-07T03:49:39;11.18;;;9.50;;
21148;SDS011;10732;51.472;6.466;2023-09-07T03:52:04;11.55;;;10.35;;
21148;SDS011;10732;51.472;6.466;2023-09-07T03:54:30;12.30;;;10.27;;
21148;SDS011;10732;51.472;6.466;2023-09-07T03:56:56;13.23;;;11.00;;
21148;SDS011;10732;51.472;6.466;2023-09-07T03:59:22;12.80;;;10.40;;
21148;SDS011;10732;51.472;6.466;2023-09-07T04:01:48;13.27;;;10.10;;
21148;SDS011;10732;51.472;6.466;2023-09-07T04:04:14;11.90;;;10.10;;
21148;SDS011;10732;51.472;6.466;2023-09-07T04:06:40;13.50;;;10.25;;
21148;SDS011;10732;51.472;6.466;2023-09-07T04:09:05;12.68;;;10.90;;
21148;SDS011;10732;51.472;6.466;2023-09-07T04:11:31;13.00;;;10.20;;
21148;SDS011;10732;51.472;6.466;2023-09-07T04:13:57;12.60;;;10.57;;
21148;SDS011;10732;51.472;6.466;2023-09-07T04:16:22;11.68;;;10.00;;
21148;SDS011;10732;51.472;6.466;2023-09-07T04:18:48;14.20;;;10.27;;
21148;SDS011;10732;51.472;6.466;2023-09-07T04:21:13;11.73;;;9.80;;
21148;SDS011;10732;51.472;6.466;2023-09-07T04:23:39;11.10;;;10.00;;
21148;SDS011;10732;51.472;6.466;2023-09-07T04:26:08;13.52;;;10.68;;
21148;SDS011;10732;51.472;6.466;2023-09-07T04:28:35;12.57;;;9.63;;
21148;SDS011;10732;51.472;6.466;2023-09-07T04:31:02;13.00;;;9.73;;
21148;SDS011;10732;51.472;6.466;2023-09-07T04:33:31;11.18;;;9.63;;
21148;SDS011;10732;51.472;6.466;2023-09-07T04:36:10;11.30;;;10.10;;
21148;SDS011;10732;51.472;6.466;2023-09-07T04:38:37;11.82;;;10.00;;
21148;SDS011;10732;51.472;6.466;2023-09-07T04:41:09;13.77;;;11.18;;
21148;SDS011;10732;51.472;6.466;2023-09-07T04:43:36;13.40;;;11.05;;
21148;SDS011;10732;51.472;6.466;2023-09-07T04:46:05;16.70;;;10.95;;
21148;SDS011;10732;51.472;6.466;2023-09-07T04:48:31;14.73;;;11.07;;
21148;SDS011;10732;51.472;6.466;2023-09-07T04:51:00;12.07;;;10.88;;
21148;SDS011;10732;51.472;6.466;2023-09-07T04:53:28;13.95;;;10.75;;
21148;SDS011;10732;51.472;6.466;2023-09-07T04:55:54;14.60;;;10.40;;
21148;SDS011;10732;51.472;6.466;2023-09-07T04:58:19;13.35;;;10.80;;
21148;SDS011;10732;51.472;6.466;2023-09-07T05:00:45;11.98;;;10.75;;
21148;SDS011;10732;51.472;6.466;2023-09-07T05:03:11;14.20;;;10.77;;
21148;SDS011;10732;51.472;6.466;2023-09-07T05:05:37;14.60;;;10.90;;
21148;SDS011;10732;51.472;6.466;2023-09-07T05:08:03;11.57;;;9.90;;
21148;SDS011;10732;51.472;6.466;2023-09-07T05:10:32;12.68;;;9.90;;
21148;SDS011;10732;51.472;6.466;2023-09-07T05:12:58;10.07;;;9.00;;
21148;SDS011;10732;51.472;6.466;2023-09-07T05:15:24;10.18;;;7.90;;
21148;SDS011;10732;51.472;6.466;2023-09-07T05:17:49;14.93;;;7.90;;
21148;SDS011;10732;51.472;6.466;2023-09-07T05:20:15;11.80;;;7.35;;
21148;SDS011;10732;51.472;6.466;2023-09-07T05:22:40;10.13;;;6.57;;
21148;SDS011;10732;51.472;6.466;2023-09-07T05:25:06;7.40;;;5.47;;
21148;SDS011;10732;51.472;6.466;2023-09-07T05:27:34;8.48;;;5.78;;
21148;SDS011;10732;51.472;6.466;2023-09-07T05:29:59;10.43;;;5.22;;
21148;SDS011;10732;51.472;6.466;2023-09-07T05:32:25;6.45;;;5.18;;
21148;SDS011;10732;51.472;6.466;2023-09-07T05:34:51;8.63;;;5.70;;
21148;SDS011;10732;51.472;6.466;2023-09-07T05:37:16;10.57;;;5.00;;
21148;SDS011;10732;51.472;6.466;2023-09-07T05:39:42;8.68;;;5.15;;
21148;SDS011;10732;51.472;6.466;2023-09-07T05:42:07;8.50;;;5.22;;
21148;SDS011;10732;51.472;6.466;2023-09-07T05:44:33;9.73;;;5.13;;
21148;SDS011;10732;51.472;6.466;2023-09-07T05:46:58;6.90;;;5.22;;
21148;SDS011;10732;51.472;6.466;2023-09-07T05:49:24;9.13;;;4.93;;
21148;SDS011;10732;51.472;6.466;2023-09-07T05:51:49;6.57;;;4.68;;
21148;SDS011;10732;51.472;6.466;2023-09-07T05:54:15;9.30;;;5.35;;
21148;SDS011;10732;51.472;6.466;2023-09-07T05:56:41;6.28;;;5.18;;
21148;SDS011;10732;51.472;6.466;2023-09-07T05:59:06;8.38;;;5.05;;
21148;SDS011;10732;51.472;6.466;2023-09-07T06:01:32;8.93;;;5.50;;
21148;SDS011;10732;51.472;6.466;2023-09-07T06:03:58;10.80;;;6.07;;
21148;SDS011;10732;51.472;6.466;2023-09-07T06:06:24;11.65;;;5.72;;
21148;SDS011;10732;51.472;6.466;2023-09-07T06:08:50;9.45;;;5.75;;
21148;SDS011;10732;51.472;6.466;2023-09-07T06:11:15;8.98;;;6.28;;
21148;SDS011;10732;51.472;6.466;2023-09-07T06:13:41;11.40;;;6.75;;
21148;SDS011;10732;51.472;6.466;2023-09-07T06:16:07;12.25;;;7.28;;
21148;SDS011;10732;51.472;6.466;2023-09-07T06:18:32;12.65;;;7.40;;
21148;SDS011;10732;51.472;6.466;2023-09-07T06:20:58;12.13;;;7.10;;
21148;SDS011;10732;51.472;6.466;2023-09-07T06:23:23;10.50;;;7.53;;
21148;SDS011;10732;51.472;6.466;2023-09-07T06:25:49;11.40;;;7.18;;
21148;SDS011;10732;51.472;6.466;2023-09-07T06:28:14;14.65;;;8.02;;
21148;SDS011;10732;51.472;6.466;2023-09-07T06:30:40;9.95;;;7.18;;
21148;SDS011;10732;51.472;6.466;2023-09-07T06:33:06;17.77;;;8.50;;
21148;SDS011;10732;51.472;6.466;2023-09-07T06:35:31;11.15;;;7.57;;
21148;SDS011;10732;51.472;6.466;2023-09-07T06:37:57;10.80;;;6.85;;
21148;SDS011;10732;51.472;6.466;2023-09-07T06:40:22;12.20;;;7.10;;
21148;SDS011;10732;51.472;6.466;2023-09-07T06:42:48;9.50;;;6.15;;
21148;SDS011;10732;51.472;6.466;2023-09-07T06:45:13;9.75;;;6.32;;
21148;SDS011;10732;51.472;6.466;2023-09-07T06:47:39;14.15;;;6.28;;
21148;SDS011;10732;51.472;6.466;2023-09-07T06:50:04;14.88;;;6.80;;
21148;SDS011;10732;51.472;6.466;2023-09-07T06:52:30;11.48;;;6.60;;
21148;SDS011;10732;51.472;6.466;2023-09-07T06:54:56;14.90;;;6.05;;
21148;SDS011;10732;51.472;6.466;2023-09-07T06:57:22;13.05;;;6.80;;
21148;SDS011;10732;51.472;6.466;2023-09-07T06:59:47;9.68;;;6.45;;
21148;SDS011;10732;51.472;6.466;2023-09-07T07:02:13;7.85;;;5.65;;
21148;SDS011;10732;51.472;6.466;2023-09-07T07:04:39;10.20;;;5.88;;
21148;SDS011;10732;51.472;6.466;2023-09-07T07:07:04;14.93;;;6.30;;
21148;SDS011;10732;51.472;6.466;2023-09-07T07:09:31;12.00;;;5.90;;
21148;SDS011;10732;51.472;6.466;2023-09-07T07:11:58;12.73;;;6.00;;
21148;SDS011;10732;51.472;6.466;2023-09-07T07:14:25;12.70;;;5.13;;
21148;SDS011;10732;51.472;6.466;2023-09-07T07:16:51;12.68;;;5.95;;
21148;SDS011;10732;51.472;6.466;2023-09-07T07:19:16;9.48;;;5.43;;
21148;SDS011;10732;51.472;6.466;2023-09-07T07:21:42;11.70;;;5.55;;
21148;SDS011;10732;51.472;6.466;2023-09-07T07:24:07;10.48;;;5.78;;
21148;SDS011;10732;51.472;6.466;2023-09-07T07:26:33;15.07;;;5.57;;
21148;SDS011;10732;51.472;6.466;2023-09-07T07:28:59;10.85;;;5.32;;
21148;SDS011;10732;51.472;6.466;2023-09-07T07:31:25;12.07;;;5.18;;
21148;SDS011;10732;51.472;6.466;2023-09-07T07:33:50;10.70;;;4.57;;
21148;SDS011;10732;51.472;6.466;2023-09-07T07:36:16;13.48;;;5.07;;
21148;SDS011;10732;51.472;6.466;2023-09-07T07:38:41;12.18;;;5.43;;
21148;SDS011;10732;51.472;6.466;2023-09-07T07:41:07;10.88;;;5.53;;
21148;SDS011;10732;51.472;6.466;2023-09-07T07:43:32;8.80;;;5.50;;
21148;SDS011;10732;51.472;6.466;2023-09-07T07:45:58;8.30;;;5.57;;
21148;SDS011;10732;51.472;6.466;2023-09-07T07:48:24;9.93;;;6.00;;
21148;SDS011;10732;51.472;6.466;2023-09-07T07:50:50;11.07;;;5.82;;
21148;SDS011;10732;51.472;6.466;2023-09-07T07:53:16;13.65;;;6.28;;
21148;SDS011;10732;51.472;6.466;2023-09-07T07:55:41;13.63;;;5.68;;
21148;SDS011;10732;51.472;6.466;2023-09-07T07:58:10;11.68;;;5.70;;
21148;SDS011;10732;51.472;6.466;2023-09-07T08:00:36;12.95;;;5.55;;
21148;SDS011;10732;51.472;6.466;2023-09-07T08:03:02;7.68;;;5.20;;
21148;SDS011;10732;51.472;6.466;2023-09-07T08:05:31;10.30;;;5.28;;
21148;SDS011;10732;51.472;6.466;2023-09-07T08:07:57;13.18;;;5.88;;
21148;SDS011;10732;51.472;6.466;2023-09-07T08:10:22;10.35;;;5.10;;
21148;SDS011;10732;51.472;6.466;2023-09-07T08:12:51;8.70;;;4.85;;
21148;SDS011;10732;51.472;6.466;2023-09-07T08:15:20;10.90;;;4.68;;
21148;SDS011;10732;51.472;6.466;2023-09-07T08:17:47;11.55;;;4.72;;
21148;SDS011;10732;51.472;6.466;2023-09-07T08:20:13;11.18;;;4.72;;
21148;SDS011;10732;51.472;6.466;2023-09-07T08:22:40;8.77;;;4.55;;
21148;SDS011;10732;51.472;6.466;2023-09-07T08:25:07;8.50;;;4.63;;
21148;SDS011;10732;51.472;6.466;2023-09-07T08:27:33;8.20;;;4.78;;
21148;SDS011;10732;51.472;6.466;2023-09-07T08:29:59;13.25;;;4.93;;
21148;SDS011;10732;51.472;6.466;2023-09-07T08:32:24;9.43;;;4.45;;
21148;SDS011;10732;51.472;6.466;2023-09-07T08:34:50;7.63;;;4.32;;
21148;SDS011;10732;51.472;6.466;2023-09-07T08:37:17;10.98;;;4.40;;
21148;SDS011;10732;51.472;6.466;2023-09-07T08:39:45;10.40;;;4.40;;
21148;SDS011;10732;51.472;6.466;2023-09-07T08:42:11;11.82;;;4.45;;
21148;SDS011;10732;51.472;6.466;2023-09-07T08:44:37;6.88;;;4.43;;
21148;SDS011;10732;51.472;6.466;2023-09-07T08:47:05;12.75;;;3.90;;
21148;SDS011;10732;51.472;6.466;2023-09-07T08:49:31;6.68;;;3.72;;
21148;SDS011;10732;51.472;6.466;2023-09-07T08:51:58;7.20;;;4.35;;
21148;SDS011;10732;51.472;6.466;2023-09-07T08:54:25;6.35;;;3.70;;
21148;SDS011;10732;51.472;6.466;2023-09-07T08:56:51;7.40;;;3.92;;
21148;SDS011;10732;51.472;6.466;2023-09-07T08:59:16;6.07;;;3.80;;
21148;SDS011;10732;51.472;6.466;2023-09-07T09:01:42;9.07;;;3.92;;
21148;SDS011;10732;51.472;6.466;2023-09-07T09:04:08;9.50;;;4.00;;
21148;SDS011;10732;51.472;6.466;2023-09-07T09:06:33;6.32;;;3.60;;
21148;SDS011;10732;51.472;6.466;2023-09-07T09:08:59;7.53;;;3.78;;
21148;SDS011;10732;51.472;6.466;2023-09-07T09:11:25;8.75;;;4.10;;
21148;SDS011;10732;51.472;6.466;2023-09-07T09:13:52;6.43;;;3.40;;
21148;SDS011;10732;51.472;6.466;2023-09-07T09:16:18;7.97;;;3.40;;
21148;SDS011;10732;51.472;6.466;2023-09-07T09:18:48;7.32;;;3.50;;
21148;SDS011;10732;51.472;6.466;2023-09-07T09:21:18;4.97;;;3.40;;
21148;SDS011;10732;51.472;6.466;2023-09-07T09:23:48;7.75;;;3.80;;
21148;SDS011;10732;51.472;6.466;2023-09-07T09:26:16;5.28;;;3.78;;
21148;SDS011;10732;51.472;6.466;2023-09-07T09:28:42;4.78;;;3.72;;
21148;SDS011;10732;51.472;6.466;2023-09-07T09:31:11;5.57;;;3.53;;
21148;SDS011;10732;51.472;6.466;2023-09-07T09:33:38;8.45;;;3.75;;
21148;SDS011;10732;51.472;6.466;2023-09-07T09:36:04;7.28;;;4.00;;
21148;SDS011;10732;51.472;6.466;2023-09-07T09:38:31;7.90;;;3.60;;
21148;SDS011;10732;51.472;6.466;2023-09-07T09:40:58;6.85;;;4.10;;
21148;SDS011;10732;51.472;6.466;2023-09-07T09:43:24;5.20;;;4.03;;
21148;SDS011;10732;51.472;6.466;2023-09-07T09:45:50;10.02;;;3.95;;
21148;SDS011;10732;51.472;6.466;2023-09-07T09:48:17;4.35;;;3.90;;
21148;SDS011;10732;51.472;6.466;2023-09-07T09:50:45;7.88;;;4.13;;
21148;SDS011;10732;51.472;6.466;2023-09-07T09:53:13;7.15;;;4.43;;
21148;SDS011;10732;51.472;6.466;2023-09-07T09:55:47;9.75;;;4.25;;
21148;SDS011;10732;51.472;6.466;2023-09-07T09:58:13;6.60;;;3.92;;
21148;SDS011;10732;51.472;6.466;2023-09-07T10:00:43;9.10;;;4.15;;
21148;SDS011;10732;51.472;6.466;2023-09-07T10:03:15;9.55;;;4.20;;
21148;SDS011;10732;51.472;6.466;2023-09-07T10:05:48;5.07;;;3.97;;
21148;SDS011;10732;51.472;6.466;2023-09-07T10:08:14;7.95;;;3.97;;
21148;SDS011;10732;51.472;6.466;2023-09-07T10:10:41;5.68;;;3.70;;
21148;SDS011;10732;51.472;6.466;2023-09-07T10:13:08;9.23;;;4.25;;
21148;SDS011;10732;51.472;6.466;2023-09-07T10:15:34;7.47;;;3.67;;
21148;SDS011;10732;51.472;6.466;2023-09-07T10:18:11;6.63;;;3.88;;
21148;SDS011;10732;51.472;6.466;2023-09-07T10:20:47;5.45;;;3.50;;
21148;SDS011;10732;51.472;6.466;2023-09-07T10:23:19;9.25;;;3.80;;
21148;SDS011;10732;51.472;6.466;2023-09-07T10:25:49;6.30;;;3.63;;
21148;SDS011;10732;51.472;6.466;2023-09-07T10:28:19;6.35;;;3.67;;
21148;SDS011;10732;51.472;6.466;2023-09-07T10:30:46;7.30;;;3.97;;
21148;SDS011;10732;51.472;6.466;2023-09-07T10:33:28;5.63;;;3.75;;
21148;SDS011;10732;51.472;6.466;2023-09-07T10:35:54;4.30;;;3.38;;
21148;SDS011;10732;51.472;6.466;2023-09-07T10:38:20;4.80;;;3.80;;
21148;SDS011;10732;51.472;6.466;2023-09-07T10:40:46;4.80;;;3.88;;
21148;SDS011;10732;51.472;6.466;2023-09-07T10:43:12;5.30;;;3.45;;
21148;SDS011;10732;51.472;6.466;2023-09-07T10:45:38;4.57;;;3.58;;
21148;SDS011;10732;51.472;6.466;2023-09-07T10:48:04;6.13;;;3.72;;
21148;SDS011;10732;51.472;6.466;2023-09-07T10:50:30;5.95;;;4.22;;
21148;SDS011;10732;51.472;6.466;2023-09-07T10:53:06;5.57;;;3.30;;
21148;SDS011;10732;51.472;6.466;2023-09-07T10:55:38;5.10;;;3.30;;
21148;SDS011;10732;51.472;6.466;2023-09-07T10:58:04;6.30;;;3.35;;
21148;SDS011;10732;51.472;6.466;2023-09-07T11:00:30;3.88;;;3.30;;
21148;SDS011;10732;51.472;6.466;2023-09-07T11:02:56;5.60;;;3.40;;
21148;SDS011;10732;51.472;6.466;2023-09-07T11:05:21;3.47;;;3.10;;
21148;SDS011;10732;51.472;6.466;2023-09-07T11:07:47;7.45;;;3.67;;
21148;SDS011;10732;51.472;6.466;2023-09-07T11:10:13;4.90;;;3.42;;
21148;SDS011;10732;51.472;6.466;2023-09-07T11:12:39;4.07;;;3.40;;
21148;SDS011;10732;51.472;6.466;2023-09-07T11:15:08;6.10;;;3.00;;
21148;SDS011;10732;51.472;6.466;2023-09-07T11:17:36;7.22;;;3.20;;
21148;SDS011;10732;51.472;6.466;2023-09-07T11:20:04;6.32;;;3.38;;
21148;SDS011;10732;51.472;6.466;2023-09-07T11:22:31;3.97;;;3.15;;
21148;SDS011;10732;51.472;6.466;2023-09-07T11:24:58;6.28;;;2.88;;
21148;SDS011;10732;51.472;6.466;2023-09-07T11:27:28;3.70;;;3.40;;
21148;SDS011;10732;51.472;6.466;2023-09-07T11:29:55;4.18;;;3.15;;
21148;SDS011;10732;51.472;6.466;2023-09-07T11:32:21;4.70;;;3.42;;
21148;SDS011;10732;51.472;6.466;2023-09-07T11:34:48;4.72;;;3.20;;
21148;SDS011;10732;51.472;6.466;2023-09-07T11:37:15;5.40;;;3.22;;
21148;SDS011;10732;51.472;6.466;2023-09-07T11:39:41;4.13;;;3.15;;
21148;SDS011;10732;51.472;6.466;2023-09-07T11:42:06;3.90;;;3.40;;
21148;SDS011;10732;51.472;6.466;2023-09-07T11:44:32;4.95;;;3.10;;
21148;SDS011;10732;51.472;6.466;2023-09-07T11:46:57;6.97;;;3.50;;
21148;SDS011;10732;51.472;6.466;2023-09-07T11:49:23;3.80;;;3.40;;
21148;SDS011;10732;51.472;6.466;2023-09-07T11:51:49;4.13;;;3.50;;
21148;SDS011;10732;51.472;6.466;2023-09-07T11:54:15;6.68;;;3.58;;
21148;SDS011;10732;51.472;6.466;2023-09-07T11:56:40;6.40;;;3.53;;
21148;SDS011;10732;51.472;6.466;2023-09-07T11:59:08;5.53;;;3.58;;
21148;SDS011;10732;51.472;6.466;2023-09-07T12:01:34;6.95;;;3.55;;
21148;SDS011;10732;51.472;6.466;2023-09-07T12:04:00;4.70;;;3.22;;
21148;SDS011;10732;51.472;6.466;2023-09-07T12:06:25;7.13;;;3.78;;
21148;SDS011;10732;51.472;6.466;2023-09-07T12:09:01;4.57;;;3.70;;
21148;SDS011;10732;51.472;6.466;2023-09-07T12:11:28;8.68;;;3.45;;
21148;SDS011;10732;51.472;6.466;2023-09-07T12:13:55;4.40;;;3.60;;
21148;SDS011;10732;51.472;6.466;2023-09-07T12:16:21;3.58;;;3.28;;
21148;SDS011;10732;51.472;6.466;2023-09-07T12:18:47;4.20;;;3.42;;
21148;SDS011;10732;51.472;6.466;2023-09-07T12:21:12;5.55;;;3.25;;
21148;SDS011;10732;51.472;6.466;2023-09-07T12:23:38;4.65;;;3.53;;
21148;SDS011;10732;51.472;6.466;2023-09-07T12:26:03;6.18;;;3.55;;
21148;SDS011;10732;51.472;6.466;2023-09-07T12:28:29;5.22;;;4.00;;
21148;SDS011;10732;51.472;6.466;2023-09-07T12:30:56;6.78;;;3.80;;
21148;SDS011;10732;51.472;6.466;2023-09-07T12:33:23;8.07;;;3.88;;
21148;SDS011;10732;51.472;6.466;2023-09-07T12:35:48;5.38;;;3.80;;
21148;SDS011;10732;51.472;6.466;2023-09-07T12:38:14;8.35;;;3.75;;
21148;SDS011;10732;51.472;6.466;2023-09-07T12:40:43;5.70;;;3.85;;
21148;SDS011;10732;51.472;6.466;2023-09-07T12:43:09;5.75;;;3.50;;
21148;SDS011;10732;51.472;6.466;2023-09-07T12:45:34;6.95;;;3.67;;
21148;SDS011;10732;51.472;6.466;2023-09-07T12:48:00;5.90;;;3.75;;
21148;SDS011;10732;51.472;6.466;2023-09-07T12:50:26;5.30;;;3.85;;
21148;SDS011;10732;51.472;6.466;2023-09-07T12:52:52;4.13;;;3.67;;
21148;SDS011;10732;51.472;6.466;2023-09-07T12:55:19;6.82;;;3.70;;
21148;SDS011;10732;51.472;6.466;2023-09-07T12:57:45;5.78;;;3.90;;
21148;SDS011;10732;51.472;6.466;2023-09-07T13:00:10;6.07;;;3.70;;
21148;SDS011;10732;51.472;6.466;2023-09-07T13:02:37;8.52;;;3.78;;
21148;SDS011;10732;51.472;6.466;2023-09-07T13:05:03;5.90;;;3.60;;
21148;SDS011;10732;51.472;6.466;2023-09-07T13:07:30;5.60;;;3.88;;
21148;SDS011;10732;51.472;6.466;2023-09-07T13:09:57;4.57;;;3.70;;
21148;SDS011;10732;51.472;6.466;2023-09-07T13:12:23;6.45;;;3.53;;
21148;SDS011;10732;51.472;6.466;2023-09-07T13:14:48;5.20;;;3.50;;
21148;SDS011;10732;51.472;6.466;2023-09-07T13:17:14;4.22;;;3.70;;
21148;SDS011;10732;51.472;6.466;2023-09-07T13:19:40;3.80;;;3.40;;
21148;SDS011;10732;51.472;6.466;2023-09-07T13:22:06;3.75;;;3.38;;
21148;SDS011;10732;51.472;6.466;2023-09-07T13:24:32;5.95;;;3.60;;
21148;SDS011;10732;51.472;6.466;2023-09-07T13:26:58;7.20;;;3.47;;
21148;SDS011;10732;51.472;6.466;2023-09-07T13:29:23;3.83;;;3.40;;
21148;SDS011;10732;51.472;6.466;2023-09-07T13:31:51;4.25;;;3.58;;
21148;SDS011;10732;51.472;6.466;2023-09-07T13:34:18;6.55;;;3.50;;
21148;SDS011;10732;51.472;6.466;2023-09-07T13:36:44;3.85;;;3.28;;
21148;SDS011;10732;51.472;6.466;2023-09-07T13:39:10;6.75;;;3.67;;
21148;SDS011;10732;51.472;6.466;2023-09-07T13:41:35;4.18;;;3.78;;
21148;SDS011;10732;51.472;6.466;2023-09-07T13:44:01;4.38;;;3.40;;
21148;SDS011;10732;51.472;6.466;2023-09-07T13:46:26;8.57;;;3.72;;
21148;SDS011;10732;51.472;6.466;2023-09-07T13:48:52;6.47;;;3.70;;
21148;SDS011;10732;51.472;6.466;2023-09-07T13:51:18;7.25;;;4.30;;
21148;SDS011;10732;51.472;6.466;2023-09-07T13:53:43;5.53;;;3.47;;
21148;SDS011;10732;51.472;6.466;2023-09-07T13:56:09;4.55;;;3.80;;
21148;SDS011;10732;51.472;6.466;2023-09-07T13:58:34;7.47;;;3.70;;
21148;SDS011;10732;51.472;6.466;2023-09-07T14:01:00;6.15;;;3.83;;
21148;SDS011;10732;51.472;6.466;2023-09-07T14:03:25;4.63;;;3.28;;
21148;SDS011;10732;51.472;6.466;2023-09-07T14:05:51;6.32;;;3.80;;
21148;SDS011;10732;51.472;6.466;2023-09-07T14:08:16;4.10;;;3.50;;
21148;SDS011;10732;51.472;6.466;2023-09-07T14:10:48;8.48;;;3.72;;
21148;SDS011;10732;51.472;6.466;2023-09-07T14:13:13;4.75;;;3.40;;
21148;SDS011;10732;51.472;6.466;2023-09-07T14:15:39;8.13;;;3.53;;
21148;SDS011;10732;51.472;6.466;2023-09-07T14:18:05;4.65;;;3.50;;
21148;SDS011;10732;51.472;6.466;2023-09-07T14:20:32;4.75;;;3.70;;
21148;SDS011;10732;51.472;6.466;2023-09-07T14:22:58;5.57;;;3.40;;
21148;SDS011;10732;51.472;6.466;2023-09-07T14:25:25;4.55;;;3.40;;
21148;SDS011;10732;51.472;6.466;2023-09-07T14:27:51;5.55;;;3.58;;
21148;SDS011;10732;51.472;6.466;2023-09-07T14:30:17;7.60;;;3.50;;
21148;SDS011;10732;51.472;6.466;2023-09-07T14:32:43;4.68;;;3.53;;
21148;SDS011;10732;51.472;6.466;2023-09-07T14:35:09;6.10;;;3.25;;